sensor_id;sensor_type;location;lat;lon;timestamp;P1;durP1;ratioP1;P2;durP2;ratioP2
793;SDS011;380;48.738;9.214;2023-02-22T00:01:18;6.55;;;4.07;;
793;SDS011;380;48.738;9.214;2023-02-22T00:03:52;7.65;;;4.53;;
793;SDS011;380;48.738;9.214;2023-02-22T00:06:19;6.70;;;4.32;;
793;SDS011;380;48.738;9.214;2023-02-22T00:08:46;6.47;;;4.15;;
793;SDS011;380;48.738;9.214;2023-02-22T00:11:13;7.13;;;4.20;;
793;SDS011;380;48.738;9.214;2023-02-22T00:13:40;6.07;;;5.10;;
793;SDS011;380;48.738;9.214;2023-02-22T00:16:12;6.20;;;4.45;;
793;SDS011;380;48.738;9.214;2023-02-22T00:18:38;13.07;;;4.95;;
793;SDS011;380;48.738;9.214;2023-02-22T00:21:04;9.60;;;4.57;;
793;SDS011;380;48.738;9.214;2023-02-22T00:23:34;4.75;;;3.55;;
793;SDS011;380;48.738;9.214;2023-02-22T00:26:04;6.70;;;4.10;;
793;SDS011;380;48.738;9.214;2023-02-22T00:28:30;6.75;;;4.15;;
793;SDS011;380;48.738;9.214;2023-02-22T00:30:56;5.03;;;3.53;;
793;SDS011;380;48.738;9.214;2023-02-22T00:33:23;5.85;;;4.18;;
793;SDS011;380;48.738;9.214;2023-02-22T00:35:49;7.63;;;4.70;;
793;SDS011;380;48.738;9.214;2023-02-22T00:38:16;8.95;;;4.50;;
793;SDS011;380;48.738;9.214;2023-02-22T00:40:43;5.43;;;3.63;;
793;SDS011;380;48.738;9.214;2023-02-22T00:43:09;7.82;;;3.60;;
793;SDS011;380;48.738;9.214;2023-02-22T00:45:35;10.50;;;4.97;;
793;SDS011;380;48.738;9.214;2023-02-22T00:48:02;5.80;;;4.03;;
793;SDS011;380;48.738;9.214;2023-02-22T00:50:30;5.28;;;3.72;;
793;SDS011;380;48.738;9.214;2023-02-22T00:52:56;5.30;;;3.70;;
793;SDS011;380;48.738;9.214;2023-02-22T00:55:24;7.18;;;4.03;;
793;SDS011;380;48.738;9.214;2023-02-22T00:57:51;6.20;;;3.00;;
793;SDS011;380;48.738;9.214;2023-02-22T01:00:23;9.57;;;4.65;;
793;SDS011;380;48.738;9.214;2023-02-22T01:02:49;5.70;;;3.90;;
793;SDS011;380;48.738;9.214;2023-02-22T01:05:16;7.07;;;3.58;;
793;SDS011;380;48.738;9.214;2023-02-22T01:07:42;7.00;;;2.92;;
793;SDS011;380;48.738;9.214;2023-02-22T01:10:08;8.18;;;4.22;;
793;SDS011;380;48.738;9.214;2023-02-22T01:12:34;6.43;;;4.60;;
793;SDS011;380;48.738;9.214;2023-02-22T01:15:01;7.75;;;3.67;;
793;SDS011;380;48.738;9.214;2023-02-22T01:17:28;7.72;;;4.60;;
793;SDS011;380;48.738;9.214;2023-02-22T01:19:54;9.40;;;4.57;;
793;SDS011;380;48.738;9.214;2023-02-22T01:22:20;9.18;;;4.20;;
793;SDS011;380;48.738;9.214;2023-02-22T01:24:47;6.30;;;3.95;;
793;SDS011;380;48.738;9.214;2023-02-22T01:27:13;7.55;;;4.75;;
793;SDS011;380;48.738;9.214;2023-02-22T01:29:39;5.90;;;4.50;;
793;SDS011;380;48.738;9.214;2023-02-22T01:32:05;5.40;;;3.72;;
793;SDS011;380;48.738;9.214;2023-02-22T01:34:31;6.68;;;4.55;;
793;SDS011;380;48.738;9.214;2023-02-22T01:36:58;7.32;;;4.97;;
793;SDS011;380;48.738;9.214;2023-02-22T01:39:25;6.97;;;4.28;;
793;SDS011;380;48.738;9.214;2023-02-22T01:41:51;6.63;;;4.00;;
793;SDS011;380;48.738;9.214;2023-02-22T01:46:52;5.97;;;4.22;;
793;SDS011;380;48.738;9.214;2023-02-22T01:49:18;4.68;;;3.97;;
793;SDS011;380;48.738;9.214;2023-02-22T01:51:48;7.03;;;5.43;;
793;SDS011;380;48.738;9.214;2023-02-22T01:54:22;9.82;;;4.40;;
793;SDS011;380;48.738;9.214;2023-02-22T01:56:52;7.70;;;3.47;;
793;SDS011;380;48.738;9.214;2023-02-22T01:59:18;7.40;;;4.25;;
793;SDS011;380;48.738;9.214;2023-02-22T02:01:45;5.07;;;3.92;;
793;SDS011;380;48.738;9.214;2023-02-22T02:04:14;6.63;;;4.25;;
793;SDS011;380;48.738;9.214;2023-02-22T02:06:40;6.38;;;3.80;;
793;SDS011;380;48.738;9.214;2023-02-22T02:11:39;4.97;;;3.67;;
793;SDS011;380;48.738;9.214;2023-02-22T02:14:06;8.02;;;4.22;;
793;SDS011;380;48.738;9.214;2023-02-22T02:16:44;5.68;;;3.20;;
793;SDS011;380;48.738;9.214;2023-02-22T02:32:20;7.72;;;3.95;;
793;SDS011;380;48.738;9.214;2023-02-22T02:40:09;7.00;;;3.85;;
793;SDS011;380;48.738;9.214;2023-02-22T02:42:37;4.65;;;3.13;;
793;SDS011;380;48.738;9.214;2023-02-22T02:45:16;8.25;;;4.50;;
793;SDS011;380;48.738;9.214;2023-02-22T02:47:44;5.65;;;4.40;;
793;SDS011;380;48.738;9.214;2023-02-22T02:50:28;5.65;;;4.28;;
793;SDS011;380;48.738;9.214;2023-02-22T02:52:56;5.22;;;4.20;;
793;SDS011;380;48.738;9.214;2023-02-22T02:55:24;6.63;;;3.88;;
793;SDS011;380;48.738;9.214;2023-02-22T02:57:51;8.25;;;3.63;;
793;SDS011;380;48.738;9.214;2023-02-22T03:00:19;5.15;;;3.35;;
793;SDS011;380;48.738;9.214;2023-02-22T03:08:03;5.10;;;3.65;;
793;SDS011;380;48.738;9.214;2023-02-22T03:16:11;5.38;;;4.03;;
793;SDS011;380;48.738;9.214;2023-02-22T03:24:36;7.53;;;4.45;;
793;SDS011;380;48.738;9.214;2023-02-22T03:26:38;7.30;;;4.10;;
793;SDS011;380;48.738;9.214;2023-02-22T03:29:07;5.68;;;3.95;;
793;SDS011;380;48.738;9.214;2023-02-22T03:31:36;5.85;;;4.35;;
793;SDS011;380;48.738;9.214;2023-02-22T03:34:21;5.35;;;3.85;;
793;SDS011;380;48.738;9.214;2023-02-22T03:36:50;6.05;;;3.88;;
793;SDS011;380;48.738;9.214;2023-02-22T03:39:20;6.15;;;4.28;;
793;SDS011;380;48.738;9.214;2023-02-22T03:41:52;8.65;;;4.80;;
793;SDS011;380;48.738;9.214;2023-02-22T03:44:20;9.70;;;4.78;;
793;SDS011;380;48.738;9.214;2023-02-22T03:46:48;5.43;;;4.43;;
793;SDS011;380;48.738;9.214;2023-02-22T03:49:50;6.50;;;4.47;;
793;SDS011;380;48.738;9.214;2023-02-22T03:52:07;7.45;;;4.45;;
793;SDS011;380;48.738;9.214;2023-02-22T03:54:34;5.88;;;4.55;;
793;SDS011;380;48.738;9.214;2023-02-22T03:57:03;6.10;;;4.55;;
793;SDS011;380;48.738;9.214;2023-02-22T03:59:31;8.88;;;4.35;;
793;SDS011;380;48.738;9.214;2023-02-22T04:01:57;5.15;;;4.05;;
793;SDS011;380;48.738;9.214;2023-02-22T04:04:23;8.07;;;4.63;;
793;SDS011;380;48.738;9.214;2023-02-22T04:06:49;6.80;;;4.80;;
793;SDS011;380;48.738;9.214;2023-02-22T04:09:16;6.20;;;5.05;;
793;SDS011;380;48.738;9.214;2023-02-22T04:11:42;6.05;;;4.22;;
793;SDS011;380;48.738;9.214;2023-02-22T04:14:08;6.00;;;4.28;;
793;SDS011;380;48.738;9.214;2023-02-22T04:16:34;5.70;;;4.63;;
793;SDS011;380;48.738;9.214;2023-02-22T04:19:00;7.05;;;4.68;;
793;SDS011;380;48.738;9.214;2023-02-22T04:21:26;7.32;;;4.80;;
793;SDS011;380;48.738;9.214;2023-02-22T04:23:52;6.82;;;4.05;;
793;SDS011;380;48.738;9.214;2023-02-22T04:26:18;4.88;;;3.63;;
793;SDS011;380;48.738;9.214;2023-02-22T04:28:44;8.18;;;5.28;;
793;SDS011;380;48.738;9.214;2023-02-22T04:31:10;5.93;;;4.72;;
793;SDS011;380;48.738;9.214;2023-02-22T04:33:36;5.00;;;3.72;;
793;SDS011;380;48.738;9.214;2023-02-22T04:36:02;4.40;;;3.45;;
793;SDS011;380;48.738;9.214;2023-02-22T04:38:28;7.97;;;5.10;;
793;SDS011;380;48.738;9.214;2023-02-22T04:40:54;4.60;;;3.97;;
793;SDS011;380;48.738;9.214;2023-02-22T04:43:20;6.25;;;4.60;;
793;SDS011;380;48.738;9.214;2023-02-22T04:45:46;7.30;;;5.03;;
793;SDS011;380;48.738;9.214;2023-02-22T04:48:12;6.28;;;4.50;;
793;SDS011;380;48.738;9.214;2023-02-22T04:50:38;5.75;;;4.18;;
793;SDS011;380;48.738;9.214;2023-02-22T04:53:04;4.57;;;4.07;;
793;SDS011;380;48.738;9.214;2023-02-22T04:55:30;4.72;;;3.88;;
793;SDS011;380;48.738;9.214;2023-02-22T04:57:57;9.73;;;4.25;;
793;SDS011;380;48.738;9.214;2023-02-22T05:00:23;5.22;;;4.25;;
793;SDS011;380;48.738;9.214;2023-02-22T05:02:50;6.80;;;4.47;;
793;SDS011;380;48.738;9.214;2023-02-22T05:05:16;4.47;;;3.38;;
793;SDS011;380;48.738;9.214;2023-02-22T05:07:42;6.05;;;4.18;;
793;SDS011;380;48.738;9.214;2023-02-22T05:10:09;5.55;;;4.20;;
793;SDS011;380;48.738;9.214;2023-02-22T05:12:35;7.88;;;5.07;;
793;SDS011;380;48.738;9.214;2023-02-22T05:15:02;7.80;;;4.57;;
793;SDS011;380;48.738;9.214;2023-02-22T05:17:28;5.43;;;4.28;;
793;SDS011;380;48.738;9.214;2023-02-22T05:19:54;7.45;;;4.65;;
793;SDS011;380;48.738;9.214;2023-02-22T05:22:20;6.32;;;4.93;;
793;SDS011;380;48.738;9.214;2023-02-22T05:24:46;6.72;;;5.00;;
793;SDS011;380;48.738;9.214;2023-02-22T05:27:12;6.32;;;4.50;;
793;SDS011;380;48.738;9.214;2023-02-22T05:29:38;6.60;;;4.45;;
793;SDS011;380;48.738;9.214;2023-02-22T05:32:04;5.18;;;3.90;;
793;SDS011;380;48.738;9.214;2023-02-22T05:34:31;6.78;;;3.78;;
793;SDS011;380;48.738;9.214;2023-02-22T05:36:57;9.38;;;4.78;;
793;SDS011;380;48.738;9.214;2023-02-22T05:39:23;5.70;;;4.07;;
793;SDS011;380;48.738;9.214;2023-02-22T05:41:49;6.72;;;3.55;;
793;SDS011;380;48.738;9.214;2023-02-22T05:44:15;4.77;;;3.63;;
793;SDS011;380;48.738;9.214;2023-02-22T05:46:41;4.80;;;4.00;;
793;SDS011;380;48.738;9.214;2023-02-22T05:49:07;6.63;;;4.38;;
793;SDS011;380;48.738;9.214;2023-02-22T05:51:33;10.52;;;4.13;;
793;SDS011;380;48.738;9.214;2023-02-22T05:53:59;7.22;;;5.40;;
793;SDS011;380;48.738;9.214;2023-02-22T05:56:25;10.32;;;5.30;;
793;SDS011;380;48.738;9.214;2023-02-22T05:58:52;6.05;;;4.38;;
793;SDS011;380;48.738;9.214;2023-02-22T06:01:18;7.72;;;4.93;;
793;SDS011;380;48.738;9.214;2023-02-22T06:03:45;5.75;;;4.03;;
793;SDS011;380;48.738;9.214;2023-02-22T06:06:11;9.02;;;5.20;;
793;SDS011;380;48.738;9.214;2023-02-22T06:08:37;8.98;;;4.60;;
793;SDS011;380;48.738;9.214;2023-02-22T06:11:03;8.90;;;4.47;;
793;SDS011;380;48.738;9.214;2023-02-22T06:13:29;11.85;;;4.78;;
793;SDS011;380;48.738;9.214;2023-02-22T06:15:55;5.18;;;4.05;;
793;SDS011;380;48.738;9.214;2023-02-22T06:18:21;9.70;;;5.90;;
793;SDS011;380;48.738;9.214;2023-02-22T06:20:50;6.82;;;4.55;;
793;SDS011;380;48.738;9.214;2023-02-22T06:23:16;8.80;;;5.65;;
793;SDS011;380;48.738;9.214;2023-02-22T06:25:42;8.70;;;5.43;;
793;SDS011;380;48.738;9.214;2023-02-22T06:28:08;7.38;;;6.32;;
793;SDS011;380;48.738;9.214;2023-02-22T06:30:34;7.35;;;5.60;;
793;SDS011;380;48.738;9.214;2023-02-22T06:33:00;7.90;;;5.50;;
793;SDS011;380;48.738;9.214;2023-02-22T06:35:26;10.55;;;5.38;;
793;SDS011;380;48.738;9.214;2023-02-22T06:37:52;6.70;;;4.57;;
793;SDS011;380;48.738;9.214;2023-02-22T06:40:18;6.90;;;5.07;;
793;SDS011;380;48.738;9.214;2023-02-22T06:42:46;6.40;;;4.28;;
793;SDS011;380;48.738;9.214;2023-02-22T06:45:12;6.03;;;4.68;;
793;SDS011;380;48.738;9.214;2023-02-22T06:47:38;6.30;;;5.32;;
793;SDS011;380;48.738;9.214;2023-02-22T06:50:05;7.55;;;5.57;;
793;SDS011;380;48.738;9.214;2023-02-22T06:52:31;6.97;;;5.43;;
793;SDS011;380;48.738;9.214;2023-02-22T06:54:57;8.75;;;5.22;;
793;SDS011;380;48.738;9.214;2023-02-22T06:57:23;4.93;;;4.30;;
793;SDS011;380;48.738;9.214;2023-02-22T06:59:49;7.20;;;6.15;;
793;SDS011;380;48.738;9.214;2023-02-22T07:02:15;11.55;;;5.70;;
793;SDS011;380;48.738;9.214;2023-02-22T07:04:41;7.22;;;4.95;;
793;SDS011;380;48.738;9.214;2023-02-22T07:07:07;6.32;;;5.03;;
793;SDS011;380;48.738;9.214;2023-02-22T07:09:33;7.93;;;5.65;;
793;SDS011;380;48.738;9.214;2023-02-22T07:11:59;8.43;;;5.00;;
793;SDS011;380;48.738;9.214;2023-02-22T07:14:25;8.32;;;5.70;;
793;SDS011;380;48.738;9.214;2023-02-22T07:16:51;8.93;;;5.20;;
793;SDS011;380;48.738;9.214;2023-02-22T07:19:17;6.88;;;6.00;;
793;SDS011;380;48.738;9.214;2023-02-22T07:21:43;5.90;;;5.00;;
793;SDS011;380;48.738;9.214;2023-02-22T07:24:11;12.38;;;6.35;;
793;SDS011;380;48.738;9.214;2023-02-22T07:26:38;7.35;;;5.00;;
793;SDS011;380;48.738;9.214;2023-02-22T07:29:05;8.05;;;5.45;;
793;SDS011;380;48.738;9.214;2023-02-22T07:31:34;5.07;;;4.20;;
793;SDS011;380;48.738;9.214;2023-02-22T07:34:00;8.63;;;5.00;;
793;SDS011;380;48.738;9.214;2023-02-22T07:36:26;8.65;;;5.45;;
793;SDS011;380;48.738;9.214;2023-02-22T07:38:52;5.75;;;4.78;;
793;SDS011;380;48.738;9.214;2023-02-22T07:41:18;6.45;;;4.88;;
793;SDS011;380;48.738;9.214;2023-02-22T07:43:46;5.65;;;4.28;;
793;SDS011;380;48.738;9.214;2023-02-22T07:46:12;6.97;;;5.15;;
793;SDS011;380;48.738;9.214;2023-02-22T07:48:38;7.30;;;5.25;;
793;SDS011;380;48.738;9.214;2023-02-22T07:51:04;7.47;;;5.00;;
793;SDS011;380;48.738;9.214;2023-02-22T07:53:31;9.10;;;5.75;;
793;SDS011;380;48.738;9.214;2023-02-22T07:55:58;8.88;;;5.25;;
793;SDS011;380;48.738;9.214;2023-02-22T07:58:25;7.53;;;4.82;;
793;SDS011;380;48.738;9.214;2023-02-22T08:00:51;9.23;;;5.53;;
793;SDS011;380;48.738;9.214;2023-02-22T08:03:18;6.45;;;5.20;;
793;SDS011;380;48.738;9.214;2023-02-22T08:05:45;9.20;;;6.10;;
793;SDS011;380;48.738;9.214;2023-02-22T08:08:11;4.97;;;4.00;;
793;SDS011;380;48.738;9.214;2023-02-22T08:10:39;10.48;;;5.78;;
793;SDS011;380;48.738;9.214;2023-02-22T08:13:05;10.35;;;5.55;;
793;SDS011;380;48.738;9.214;2023-02-22T08:15:33;10.57;;;5.22;;
793;SDS011;380;48.738;9.214;2023-02-22T08:17:59;8.30;;;5.63;;
793;SDS011;380;48.738;9.214;2023-02-22T08:20:26;7.10;;;4.85;;
793;SDS011;380;48.738;9.214;2023-02-22T08:22:52;9.18;;;5.75;;
793;SDS011;380;48.738;9.214;2023-02-22T08:25:19;10.27;;;5.85;;
793;SDS011;380;48.738;9.214;2023-02-22T08:27:46;6.78;;;4.57;;
793;SDS011;380;48.738;9.214;2023-02-22T08:30:16;4.95;;;3.75;;
793;SDS011;380;48.738;9.214;2023-02-22T08:32:44;7.25;;;4.20;;
793;SDS011;380;48.738;9.214;2023-02-22T08:35:10;5.25;;;3.38;;
793;SDS011;380;48.738;9.214;2023-02-22T08:37:40;6.00;;;4.45;;
793;SDS011;380;48.738;9.214;2023-02-22T08:40:06;8.15;;;5.22;;
793;SDS011;380;48.738;9.214;2023-02-22T08:42:32;8.75;;;5.82;;
793;SDS011;380;48.738;9.214;2023-02-22T08:44:58;7.50;;;5.50;;
793;SDS011;380;48.738;9.214;2023-02-22T08:47:24;7.38;;;5.55;;
793;SDS011;380;48.738;9.214;2023-02-22T08:49:50;7.22;;;4.47;;
793;SDS011;380;48.738;9.214;2023-02-22T08:52:16;7.25;;;5.00;;
793;SDS011;380;48.738;9.214;2023-02-22T08:54:44;7.82;;;4.68;;
793;SDS011;380;48.738;9.214;2023-02-22T08:57:10;7.15;;;5.18;;
793;SDS011;380;48.738;9.214;2023-02-22T08:59:36;6.82;;;5.28;;
793;SDS011;380;48.738;9.214;2023-02-22T09:02:02;9.80;;;6.47;;
793;SDS011;380;48.738;9.214;2023-02-22T09:04:29;8.35;;;5.32;;
793;SDS011;380;48.738;9.214;2023-02-22T09:06:55;10.82;;;4.65;;
793;SDS011;380;48.738;9.214;2023-02-22T09:09:21;11.25;;;5.68;;
793;SDS011;380;48.738;9.214;2023-02-22T09:11:47;6.80;;;5.40;;
793;SDS011;380;48.738;9.214;2023-02-22T09:14:13;8.95;;;5.40;;
793;SDS011;380;48.738;9.214;2023-02-22T09:16:40;7.05;;;5.15;;
793;SDS011;380;48.738;9.214;2023-02-22T09:19:06;7.18;;;5.30;;
793;SDS011;380;48.738;9.214;2023-02-22T09:21:32;7.25;;;5.82;;
793;SDS011;380;48.738;9.214;2023-02-22T09:23:58;6.47;;;4.57;;
793;SDS011;380;48.738;9.214;2023-02-22T09:26:32;8.38;;;5.78;;
793;SDS011;380;48.738;9.214;2023-02-22T09:28:58;7.40;;;4.90;;
793;SDS011;380;48.738;9.214;2023-02-22T09:31:24;8.70;;;4.97;;
793;SDS011;380;48.738;9.214;2023-02-22T09:33:49;8.90;;;4.70;;
793;SDS011;380;48.738;9.214;2023-02-22T09:36:15;7.78;;;5.35;;
793;SDS011;380;48.738;9.214;2023-02-22T09:38:41;8.07;;;5.97;;
793;SDS011;380;48.738;9.214;2023-02-22T09:41:15;8.48;;;5.22;;
793;SDS011;380;48.738;9.214;2023-02-22T09:43:46;7.03;;;5.40;;
793;SDS011;380;48.738;9.214;2023-02-22T09:49:00;11.20;;;6.93;;
793;SDS011;380;48.738;9.214;2023-02-22T09:51:32;11.55;;;6.35;;
793;SDS011;380;48.738;9.214;2023-02-22T09:53:59;6.90;;;4.80;;
793;SDS011;380;48.738;9.214;2023-02-22T09:56:27;8.57;;;5.90;;
793;SDS011;380;48.738;9.214;2023-02-22T09:58:55;7.30;;;5.05;;
793;SDS011;380;48.738;9.214;2023-02-22T10:01:41;8.52;;;5.97;;
793;SDS011;380;48.738;9.214;2023-02-22T10:04:16;8.40;;;5.95;;
793;SDS011;380;48.738;9.214;2023-02-22T10:09:30;12.93;;;7.55;;
793;SDS011;380;48.738;9.214;2023-02-22T10:12:03;8.98;;;6.40;;
793;SDS011;380;48.738;9.214;2023-02-22T10:25:16;6.80;;;3.58;;
793;SDS011;380;48.738;9.214;2023-02-22T10:27:45;6.38;;;3.58;;
793;SDS011;380;48.738;9.214;2023-02-22T10:30:18;5.20;;;3.78;;
793;SDS011;380;48.738;9.214;2023-02-22T10:32:45;5.40;;;3.20;;
793;SDS011;380;48.738;9.214;2023-02-22T10:35:23;5.93;;;3.80;;
793;SDS011;380;48.738;9.214;2023-02-22T10:37:50;7.13;;;4.43;;
793;SDS011;380;48.738;9.214;2023-02-22T10:40:19;7.43;;;5.43;;
793;SDS011;380;48.738;9.214;2023-02-22T10:42:47;6.00;;;4.40;;
793;SDS011;380;48.738;9.214;2023-02-22T10:45:24;4.90;;;4.07;;
793;SDS011;380;48.738;9.214;2023-02-22T10:47:53;9.82;;;5.40;;
793;SDS011;380;48.738;9.214;2023-02-22T10:50:19;7.25;;;4.65;;
793;SDS011;380;48.738;9.214;2023-02-22T10:52:46;7.72;;;4.65;;
793;SDS011;380;48.738;9.214;2023-02-22T10:55:13;5.80;;;4.47;;
793;SDS011;380;48.738;9.214;2023-02-22T10:57:40;7.50;;;4.85;;
793;SDS011;380;48.738;9.214;2023-02-22T11:00:29;9.90;;;5.05;;
793;SDS011;380;48.738;9.214;2023-02-22T11:02:55;9.00;;;4.38;;
793;SDS011;380;48.738;9.214;2023-02-22T11:05:39;5.97;;;3.80;;
793;SDS011;380;48.738;9.214;2023-02-22T11:08:12;6.75;;;4.60;;
793;SDS011;380;48.738;9.214;2023-02-22T11:10:39;9.68;;;5.05;;
793;SDS011;380;48.738;9.214;2023-02-22T11:15:57;6.80;;;5.45;;
793;SDS011;380;48.738;9.214;2023-02-22T11:18:25;7.65;;;5.35;;
793;SDS011;380;48.738;9.214;2023-02-22T11:21:07;6.68;;;4.50;;
793;SDS011;380;48.738;9.214;2023-02-22T11:23:35;8.18;;;5.00;;
793;SDS011;380;48.738;9.214;2023-02-22T11:26:04;7.50;;;4.65;;
793;SDS011;380;48.738;9.214;2023-02-22T11:28:31;7.03;;;5.43;;
793;SDS011;380;48.738;9.214;2023-02-22T11:31:07;7.72;;;5.43;;
793;SDS011;380;48.738;9.214;2023-02-22T11:33:33;9.35;;;5.45;;
793;SDS011;380;48.738;9.214;2023-02-22T11:36:00;12.07;;;7.00;;
793;SDS011;380;48.738;9.214;2023-02-22T11:38:32;7.95;;;6.35;;
793;SDS011;380;48.738;9.214;2023-02-22T11:43:40;9.25;;;6.20;;
793;SDS011;380;48.738;9.214;2023-02-22T11:46:10;11.85;;;6.22;;
793;SDS011;380;48.738;9.214;2023-02-22T11:48:37;7.85;;;6.13;;
793;SDS011;380;48.738;9.214;2023-02-22T11:53:55;7.43;;;5.55;;
793;SDS011;380;48.738;9.214;2023-02-22T11:56:30;10.73;;;6.45;;
793;SDS011;380;48.738;9.214;2023-02-22T12:01:35;10.95;;;6.25;;
793;SDS011;380;48.738;9.214;2023-02-22T12:09:23;11.15;;;7.20;;
793;SDS011;380;48.738;9.214;2023-02-22T12:11:57;10.93;;;7.00;;
793;SDS011;380;48.738;9.214;2023-02-22T12:19:35;8.30;;;7.00;;
793;SDS011;380;48.738;9.214;2023-02-22T12:24:48;10.30;;;8.20;;
793;SDS011;380;48.738;9.214;2023-02-22T12:27:24;10.52;;;7.50;;
793;SDS011;380;48.738;9.214;2023-02-22T12:29:53;11.15;;;7.53;;
793;SDS011;380;48.738;9.214;2023-02-22T12:32:31;11.05;;;7.80;;
793;SDS011;380;48.738;9.214;2023-02-22T12:35:03;15.10;;;8.35;;
793;SDS011;380;48.738;9.214;2023-02-22T12:43:05;10.00;;;7.80;;
793;SDS011;380;48.738;9.214;2023-02-22T12:53:36;11.45;;;8.00;;
793;SDS011;380;48.738;9.214;2023-02-22T12:56:13;11.07;;;6.80;;
793;SDS011;380;48.738;9.214;2023-02-22T13:01:27;8.98;;;7.10;;
793;SDS011;380;48.738;9.214;2023-02-22T13:06:45;11.15;;;8.18;;
793;SDS011;380;48.738;9.214;2023-02-22T13:09:18;11.98;;;7.35;;
793;SDS011;380;48.738;9.214;2023-02-22T13:21:51;6.93;;;5.93;;
793;SDS011;380;48.738;9.214;2023-02-22T13:29:23;7.82;;;5.28;;
793;SDS011;380;48.738;9.214;2023-02-22T13:39:47;12.80;;;7.47;;
793;SDS011;380;48.738;9.214;2023-02-22T13:45:11;10.23;;;7.05;;
793;SDS011;380;48.738;9.214;2023-02-22T13:48:10;13.00;;;7.15;;
793;SDS011;380;48.738;9.214;2023-02-22T13:53:02;8.63;;;6.65;;
793;SDS011;380;48.738;9.214;2023-02-22T13:55:30;10.00;;;6.45;;
793;SDS011;380;48.738;9.214;2023-02-22T13:58:02;8.85;;;6.75;;
793;SDS011;380;48.738;9.214;2023-02-22T14:00:45;8.45;;;6.55;;
793;SDS011;380;48.738;9.214;2023-02-22T14:13:08;9.52;;;7.00;;
793;SDS011;380;48.738;9.214;2023-02-22T14:15:34;8.60;;;7.40;;
793;SDS011;380;48.738;9.214;2023-02-22T14:18:01;11.75;;;7.65;;
793;SDS011;380;48.738;9.214;2023-02-22T14:22:56;9.82;;;7.47;;
793;SDS011;380;48.738;9.214;2023-02-22T14:25:38;11.02;;;8.25;;
793;SDS011;380;48.738;9.214;2023-02-22T14:28:06;9.10;;;7.60;;
793;SDS011;380;48.738;9.214;2023-02-22T14:30:33;10.95;;;7.50;;
793;SDS011;380;48.738;9.214;2023-02-22T14:32:59;13.43;;;9.05;;
793;SDS011;380;48.738;9.214;2023-02-22T14:35:30;17.63;;;9.07;;
793;SDS011;380;48.738;9.214;2023-02-22T14:38:01;11.68;;;7.05;;
793;SDS011;380;48.738;9.214;2023-02-22T14:40:31;9.02;;;6.88;;
793;SDS011;380;48.738;9.214;2023-02-22T14:45:26;12.45;;;7.88;;
793;SDS011;380;48.738;9.214;2023-02-22T14:48:07;8.95;;;7.32;;
793;SDS011;380;48.738;9.214;2023-02-22T14:53:06;9.63;;;7.90;;
793;SDS011;380;48.738;9.214;2023-02-22T14:55:40;11.82;;;7.47;;
793;SDS011;380;48.738;9.214;2023-02-22T15:00:38;10.18;;;6.93;;
793;SDS011;380;48.738;9.214;2023-02-22T15:03:10;8.10;;;7.25;;
793;SDS011;380;48.738;9.214;2023-02-22T15:05:41;10.82;;;7.25;;
793;SDS011;380;48.738;9.214;2023-02-22T15:08:08;8.82;;;6.47;;
793;SDS011;380;48.738;9.214;2023-02-22T15:10:38;11.23;;;7.30;;
793;SDS011;380;48.738;9.214;2023-02-22T15:13:28;8.02;;;6.65;;
793;SDS011;380;48.738;9.214;2023-02-22T15:15:57;11.80;;;8.10;;
793;SDS011;380;48.738;9.214;2023-02-22T15:18:28;15.50;;;7.90;;
793;SDS011;380;48.738;9.214;2023-02-22T15:21:01;8.73;;;6.57;;
793;SDS011;380;48.738;9.214;2023-02-22T15:23:28;9.30;;;6.43;;
793;SDS011;380;48.738;9.214;2023-02-22T15:25:54;9.48;;;6.00;;
793;SDS011;380;48.738;9.214;2023-02-22T15:28:22;9.80;;;7.15;;
793;SDS011;380;48.738;9.214;2023-02-22T15:30:49;8.95;;;7.15;;
793;SDS011;380;48.738;9.214;2023-02-22T15:33:16;14.20;;;8.85;;
793;SDS011;380;48.738;9.214;2023-02-22T15:35:53;11.68;;;7.88;;
793;SDS011;380;48.738;9.214;2023-02-22T15:38:21;10.20;;;7.82;;
793;SDS011;380;48.738;9.214;2023-02-22T15:40:57;12.25;;;9.18;;
793;SDS011;380;48.738;9.214;2023-02-22T15:43:23;12.50;;;8.68;;
793;SDS011;380;48.738;9.214;2023-02-22T15:45:52;12.50;;;8.30;;
793;SDS011;380;48.738;9.214;2023-02-22T15:48:18;13.30;;;9.15;;
793;SDS011;380;48.738;9.214;2023-02-22T15:50:57;12.32;;;8.27;;
793;SDS011;380;48.738;9.214;2023-02-22T15:53:27;11.43;;;8.80;;
793;SDS011;380;48.738;9.214;2023-02-22T15:55:55;18.70;;;8.63;;
793;SDS011;380;48.738;9.214;2023-02-22T15:58:23;13.20;;;8.85;;
793;SDS011;380;48.738;9.214;2023-02-22T16:03:25;12.95;;;8.93;;
793;SDS011;380;48.738;9.214;2023-02-22T16:05:57;18.20;;;11.27;;
793;SDS011;380;48.738;9.214;2023-02-22T16:08:46;14.90;;;9.52;;
793;SDS011;380;48.738;9.214;2023-02-22T16:11:13;12.55;;;9.90;;
793;SDS011;380;48.738;9.214;2023-02-22T16:13:40;11.52;;;9.27;;
793;SDS011;380;48.738;9.214;2023-02-22T16:18:44;13.45;;;9.88;;
793;SDS011;380;48.738;9.214;2023-02-22T16:21:12;16.98;;;10.32;;
793;SDS011;380;48.738;9.214;2023-02-22T16:23:42;11.85;;;10.23;;
793;SDS011;380;48.738;9.214;2023-02-22T16:28:45;16.90;;;11.13;;
793;SDS011;380;48.738;9.214;2023-02-22T16:31:15;13.93;;;11.07;;
793;SDS011;380;48.738;9.214;2023-02-22T16:33:41;11.48;;;9.98;;
793;SDS011;380;48.738;9.214;2023-02-22T16:36:07;12.65;;;9.95;;
793;SDS011;380;48.738;9.214;2023-02-22T16:38:33;18.80;;;11.45;;
793;SDS011;380;48.738;9.214;2023-02-22T16:41:02;13.60;;;11.00;;
793;SDS011;380;48.738;9.214;2023-02-22T16:43:30;17.98;;;10.55;;
793;SDS011;380;48.738;9.214;2023-02-22T16:45:57;15.80;;;11.68;;
793;SDS011;380;48.738;9.214;2023-02-22T16:48:25;10.55;;;9.45;;
793;SDS011;380;48.738;9.214;2023-02-22T16:50:53;13.55;;;8.70;;
793;SDS011;380;48.738;9.214;2023-02-22T16:53:21;14.43;;;10.93;;
793;SDS011;380;48.738;9.214;2023-02-22T16:55:47;12.88;;;10.40;;
793;SDS011;380;48.738;9.214;2023-02-22T16:58:13;15.18;;;10.63;;
793;SDS011;380;48.738;9.214;2023-02-22T17:00:40;13.27;;;10.23;;
793;SDS011;380;48.738;9.214;2023-02-22T17:03:08;12.15;;;9.35;;
793;SDS011;380;48.738;9.214;2023-02-22T17:05:34;15.75;;;11.35;;
793;SDS011;380;48.738;9.214;2023-02-22T17:08:02;14.10;;;9.10;;
793;SDS011;380;48.738;9.214;2023-02-22T17:10:28;13.32;;;9.90;;
793;SDS011;380;48.738;9.214;2023-02-22T17:12:54;13.32;;;10.05;;
793;SDS011;380;48.738;9.214;2023-02-22T17:15:22;12.77;;;9.32;;
793;SDS011;380;48.738;9.214;2023-02-22T17:17:49;14.18;;;9.15;;
793;SDS011;380;48.738;9.214;2023-02-22T17:20:15;13.05;;;10.25;;
793;SDS011;380;48.738;9.214;2023-02-22T17:22:53;14.77;;;9.43;;
793;SDS011;380;48.738;9.214;2023-02-22T17:25:23;9.73;;;8.73;;
793;SDS011;380;48.738;9.214;2023-02-22T17:27:50;12.00;;;9.30;;
793;SDS011;380;48.738;9.214;2023-02-22T17:30:16;14.77;;;9.90;;
793;SDS011;380;48.738;9.214;2023-02-22T17:32:45;13.10;;;9.68;;
793;SDS011;380;48.738;9.214;2023-02-22T17:35:11;12.98;;;9.75;;
793;SDS011;380;48.738;9.214;2023-02-22T17:37:36;13.63;;;9.18;;
793;SDS011;380;48.738;9.214;2023-02-22T17:40:03;11.52;;;8.82;;
793;SDS011;380;48.738;9.214;2023-02-22T17:42:29;18.38;;;9.85;;
793;SDS011;380;48.738;9.214;2023-02-22T17:44:55;13.18;;;9.77;;
793;SDS011;380;48.738;9.214;2023-02-22T17:47:20;9.75;;;8.20;;
793;SDS011;380;48.738;9.214;2023-02-22T17:49:47;11.98;;;9.25;;
793;SDS011;380;48.738;9.214;2023-02-22T17:52:13;13.90;;;8.73;;
793;SDS011;380;48.738;9.214;2023-02-22T17:54:39;13.60;;;10.35;;
793;SDS011;380;48.738;9.214;2023-02-22T17:57:05;17.70;;;11.57;;
793;SDS011;380;48.738;9.214;2023-02-22T17:59:31;13.63;;;9.63;;
793;SDS011;380;48.738;9.214;2023-02-22T18:01:58;12.38;;;9.93;;
793;SDS011;380;48.738;9.214;2023-02-22T18:04:24;12.10;;;9.23;;
793;SDS011;380;48.738;9.214;2023-02-22T18:06:50;11.70;;;9.27;;
793;SDS011;380;48.738;9.214;2023-02-22T18:09:17;15.65;;;10.23;;
793;SDS011;380;48.738;9.214;2023-02-22T18:11:44;12.65;;;9.80;;
793;SDS011;380;48.738;9.214;2023-02-22T18:14:11;11.57;;;9.00;;
793;SDS011;380;48.738;9.214;2023-02-22T18:16:37;14.48;;;9.63;;
793;SDS011;380;48.738;9.214;2023-02-22T18:19:03;16.70;;;9.15;;
793;SDS011;380;48.738;9.214;2023-02-22T18:21:29;14.55;;;8.40;;